Time;durP1;ratioP1;P1;durP2;ratioP2;P2;SDS_P1;SDS_P2;PMS_P1;PMS_P2;Temp;Humidity;BMP_temperature;BMP_pressure;BME280_temperature;BME280_humidity;BME280_pressure;Samples;Min_cycle;Max_cycle;Signal;HPM_P1;HPM_P2
2023/04/25 05:21:35;;;;;;;;;0.00;0.00;;;;;;;;5533942;22;51660;-75
2023/04/25 05:24:01;;;;;;;;;0.00;0.00;;;;;;;;6234681;22;50001;-77
2023/04/25 05:26:30;;;;;;;;;0.00;0.00;;;;;;;;6233145;22;49639;-75
2023/04/25 05:28:55;;;;;;;;;0.00;0.00;;;;;;;;6234348;22;49670;-77
2023/04/25 05:31:20;;;;;;;;;0.00;0.00;;;;;;;;6234811;22;49866;-77
2023/04/25 05:33:46;;;;;;;;;0.00;0.00;;;;;;;;6234881;22;49913;-74
2023/04/25 05:36:11;;;;;;;;;0.00;0.00;;;;;;;;6233761;22;50508;-78
2023/04/25 05:38:36;;;;;;;;;0.00;0.00;;;;;;;;6234676;22;49919;-74
2023/04/25 05:41:01;;;;;;;;;0.00;0.00;;;;;;;;6234312;22;50264;-75
2023/04/25 05:43:27;;;;;;;;;0.00;0.00;;;;;;;;6234131;22;49943;-75
2023/04/25 05:45:52;;;;;;;;;2.00;2.00;;;;;;;;6234346;22;50522;-71
2023/04/25 05:48:17;;;;;;;;;0.00;0.00;;;;;;;;6233571;22;49622;-72
2023/04/25 05:50:43;;;;;;;;;0.00;0.00;;;;;;;;6234469;22;49646;-70
2023/04/25 05:53:09;;;;;;;;;0.00;0.00;;;;;;;;6234108;22;49637;-68
2023/04/25 05:55:34;;;;;;;;;0.00;0.00;;;;;;;;6234110;22;51283;-73
2023/04/25 05:57:59;;;;;;;;;0.00;0.00;;;;;;;;6233682;22;49970;-73
2023/04/25 06:00:24;;;;;;;;;0.00;0.00;;;;;;;;6233631;22;49827;-72
2023/04/25 06:02:50;;;;;;;;;0.00;0.00;;;;;;;;6233765;22;50506;-72
2023/04/25 06:05:15;;;;;;;;;0.00;0.00;;;;;;;;6233618;22;51226;-71
2023/04/25 06:07:40;;;;;;;;;0.00;0.00;;;;;;;;6234101;22;49699;-71
2023/04/25 06:10:06;;;;;;;;;0.00;0.00;;;;;;;;6233964;22;49722;-71
2023/04/25 06:12:32;;;;;;;;;0.00;0.00;;;;;;;;6230133;22;49856;-69
2023/04/25 06:14:58;;;;;;;;;18.00;18.00;;;;;;;;6232450;22;50605;-69
2023/04/25 06:17:23;;;;;;;;;0.00;0.00;;;;;;;;6233039;22;49938;-70
2023/04/25 06:19:48;;;;;;;;;0.75;0.00;;;;;;;;6233731;22;49895;-69
2023/04/25 06:22:13;;;;;;;;;0.00;0.00;;;;;;;;6233619;22;49881;-69
2023/04/25 06:24:39;;;;;;;;;0.00;0.00;;;;;;;;6234071;22;49808;-69
2023/04/25 06:27:04;;;;;;;;;2.25;0.00;;;;;;;;6232668;22;49664;-69
2023/04/25 06:29:30;;;;;;;;;0.00;0.00;;;;;;;;6233654;22;49882;-69
2023/04/25 06:31:55;;;;;;;;;0.00;0.00;;;;;;;;6234139;22;49738;-69
2023/04/25 06:34:20;;;;;;;;;0.00;0.00;;;;;;;;6233210;22;50208;-69
2023/04/25 06:36:45;;;;;;;;;0.00;0.00;;;;;;;;6233659;22;49819;-70
2023/04/25 06:39:11;;;;;;;;;0.00;0.00;;;;;;;;6235137;22;50002;-68
2023/04/25 06:41:36;;;;;;;;;1.00;1.00;;;;;;;;6235185;22;49593;-68
2023/04/25 06:44:01;;;;;;;;;0.00;0.00;;;;;;;;6233985;22;51433;-67
2023/04/25 06:46:26;;;;;;;;;0.00;0.00;;;;;;;;6234732;22;49610;-68
2023/04/25 06:48:52;;;;;;;;;1.00;1.00;;;;;;;;6233355;22;49747;-69
2023/04/25 06:51:17;;;;;;;;;0.00;0.00;;;;;;;;6235364;22;49842;-68
2023/04/25 06:53:42;;;;;;;;;11.50;5.75;;;;;;;;6206915;22;51342;-69
2023/04/25 06:56:07;;;;;;;;;0.00;0.00;;;;;;;;6233726;22;49718;-70
2023/04/25 06:58:33;;;;;;;;;4.00;4.00;;;;;;;;6234467;22;49829;-72
2023/04/25 07:00:58;;;;;;;;;4.00;4.00;;;;;;;;6235654;22;49908;-74
2023/04/25 07:03:23;;;;;;;;;3.00;2.00;;;;;;;;6234874;22;50201;-73
2023/04/25 07:05:49;;;;;;;;;1.00;1.00;;;;;;;;6235181;22;49623;-74
2023/04/25 07:08:14;;;;;;;;;0.75;0.75;;;;;;;;6235244;22;49707;-74
2023/04/25 07:10:40;;;;;;;;;0.00;0.00;;;;;;;;6235439;22;49898;-74
2023/04/25 07:13:05;;;;;;;;;0.00;0.00;;;;;;;;6235089;22;50191;-74
2023/04/25 07:15:30;;;;;;;;;0.00;0.00;;;;;;;;6234865;22;49754;-75
2023/04/25 07:17:55;;;;;;;;;0.00;0.00;;;;;;;;6235276;22;49917;-73
2023/04/25 07:20:20;;;;;;;;;3.00;3.00;;;;;;;;6235415;22;49591;-73
2023/04/25 07:22:46;;;;;;;;;0.00;0.00;;;;;;;;6234954;22;50344;-74
2023/04/25 07:25:11;;;;;;;;;3.00;1.75;;;;;;;;6234946;22;49978;-73
2023/04/25 07:27:36;;;;;;;;;3.00;1.00;;;;;;;;6235123;22;49535;-74
2023/04/25 07:30:02;;;;;;;;;4.33;4.33;;;;;;;;6235656;22;49579;-74
2023/04/25 07:32:27;;;;;;;;;0.00;0.00;;;;;;;;6234878;22;50316;-74
2023/04/25 07:34:52;;;;;;;;;4.00;3.00;;;;;;;;6235328;22;49997;-73
2023/04/25 07:37:18;;;;;;;;;3.00;0.00;;;;;;;;6234293;22;49749;-77
2023/04/25 07:39:45;;;;;;;;;4.00;4.00;;;;;;;;6235116;22;49486;-73
2023/04/25 07:42:11;;;;;;;;;4.75;3.25;;;;;;;;6234534;22;50295;-72
2023/04/25 07:44:39;;;;;;;;;0.00;0.00;;;;;;;;6234811;22;49658;-72
2023/04/25 07:47:06;;;;;;;;;0.00;0.00;;;;;;;;6234623;22;50035;-75
2023/04/25 07:49:32;;;;;;;;;6.50;2.75;;;;;;;;6234299;22;50004;-76
2023/04/25 07:51:57;;;;;;;;;8.50;3.75;;;;;;;;6234447;22;50260;-74
2023/04/25 07:54:22;;;;;;;;;0.00;0.00;;;;;;;;6235069;22;49531;-74
2023/04/25 07:56:47;;;;;;;;;3.00;1.33;;;;;;;;6207404;22;49580;-75
2023/04/25 07:59:13;;;;;;;;;0.00;0.00;;;;;;;;6235398;22;49567;-74
2023/04/25 08:01:38;;;;;;;;;3.00;3.00;;;;;;;;6234636;22;49807;-75
2023/04/25 08:04:03;;;;;;;;;6.00;3.00;;;;;;;;6235169;22;49623;-76
2023/04/25 08:06:28;;;;;;;;;1.00;1.00;;;;;;;;6234683;22;50038;-75
2023/04/25 08:08:53;;;;;;;;;0.00;0.00;;;;;;;;6235303;22;49947;-75
2023/04/25 08:11:19;;;;;;;;;6.33;4.33;;;;;;;;6207368;22;50277;-76
2023/04/25 08:13:44;;;;;;;;;0.75;0.25;;;;;;;;6234382;22;49729;-75
2023/04/25 08:16:09;;;;;;;;;0.00;0.00;;;;;;;;6234824;22;49836;-74
2023/04/25 08:18:34;;;;;;;;;0.75;0.75;;;;;;;;6234606;22;49559;-74
2023/04/25 08:20:59;;;;;;;;;0.33;0.00;;;;;;;;6233853;22;51500;-74
2023/04/25 08:23:24;;;;;;;;;2.33;1.67;;;;;;;;6234865;22;49927;-75
2023/04/25 08:25:50;;;;;;;;;2.67;1.33;;;;;;;;6234097;22;49787;-82
2023/04/25 08:28:16;;;;;;;;;0.00;0.00;;;;;;;;6234630;22;49653;-75
2023/04/25 08:30:41;;;;;;;;;0.00;0.00;;;;;;;;6206780;22;52367;-73
2023/04/25 08:33:06;;;;;;;;;0.00;0.00;;;;;;;;6234832;22;50369;-71
2023/04/25 08:35:32;;;;;;;;;1.00;1.00;;;;;;;;6207517;22;49833;-73
2023/04/25 08:37:58;;;;;;;;;0.00;0.00;;;;;;;;6234009;22;49813;-71
2023/04/25 08:40:28;;;;;;;;;0.00;0.00;;;;;;;;6234136;22;51280;-78
2023/04/25 08:42:54;;;;;;;;;1.00;1.00;;;;;;;;6234592;22;49556;-75
2023/04/25 08:45:20;;;;;;;;;0.00;0.00;;;;;;;;6234641;22;49809;-75
2023/04/25 08:47:45;;;;;;;;;0.00;0.00;;;;;;;;6234755;22;49666;-77
2023/04/25 08:50:10;;;;;;;;;1.50;1.00;;;;;;;;6234835;22;50298;-76
2023/04/25 08:52:37;;;;;;;;;0.00;0.00;;;;;;;;6233984;22;49753;-75
2023/04/25 08:55:03;;;;;;;;;1.00;0.00;;;;;;;;6234039;22;49591;-76
2023/04/25 08:57:29;;;;;;;;;3.25;1.50;;;;;;;;6234977;22;49971;-76
2023/04/25 08:59:55;;;;;;;;;0.00;0.00;;;;;;;;6206893;22;52185;-76
2023/04/25 09:02:20;;;;;;;;;0.00;0.00;;;;;;;;6234342;22;49646;-75
2023/04/25 09:04:45;;;;;;;;;0.25;0.25;;;;;;;;6234790;22;49714;-75
2023/04/25 09:07:11;;;;;;;;;0.00;0.00;;;;;;;;6235150;22;49944;-75
2023/04/25 09:09:36;;;;;;;;;3.00;3.00;;;;;;;;6232969;22;50502;-77
2023/04/25 09:12:01;;;;;;;;;0.00;0.00;;;;;;;;6234404;22;49779;-76
2023/04/25 09:14:27;;;;;;;;;0.00;0.00;;;;;;;;6233989;22;49886;-76
2023/04/25 09:16:55;;;;;;;;;1.00;1.00;;;;;;;;6234551;22;49839;-75
2023/04/25 09:19:25;;;;;;;;;0.00;0.00;;;;;;;;6234170;22;49682;-74
2023/04/25 09:21:50;;;;;;;;;0.50;0.50;;;;;;;;6233586;22;49901;-74
2023/04/25 09:24:15;;;;;;;;;0.00;0.00;;;;;;;;6234456;22;49985;-75
2023/04/25 09:26:41;;;;;;;;;0.00;0.00;;;;;;;;6234668;22;49924;-76
2023/04/25 09:29:07;;;;;;;;;0.00;0.00;;;;;;;;6234542;22;50933;-73
2023/04/25 09:31:32;;;;;;;;;5.50;3.75;;;;;;;;6234538;22;49983;-74
2023/04/25 09:34:01;;;;;;;;;0.00;0.00;;;;;;;;6235140;22;49558;-75
2023/04/25 09:36:26;;;;;;;;;0.00;0.00;;;;;;;;6235138;22;49900;-74
2023/04/25 09:38:52;;;;;;;;;0.00;0.00;;;;;;;;6234035;22;50543;-67
2023/04/25 09:41:22;;;;;;;;;0.00;0.00;;;;;;;;6234403;22;49669;-69
2023/04/25 09:43:48;;;;;;;;;0.00;0.00;;;;;;;;6206041;22;49691;-69
2023/04/25 09:46:14;;;;;;;;;0.00;0.00;;;;;;;;6234116;22;49666;-69
2023/04/25 09:48:39;;;;;;;;;0.00;0.00;;;;;;;;6233930;22;50422;-69
2023/04/25 09:51:08;;;;;;;;;0.00;0.00;;;;;;;;6234423;22;49726;-70
2023/04/25 09:53:35;;;;;;;;;0.00;0.00;;;;;;;;6234727;22;50201;-74
2023/04/25 09:56:02;;;;;;;;;0.00;0.00;;;;;;;;6235119;22;49605;-79
2023/04/25 09:58:29;;;;;;;;;0.00;0.00;;;;;;;;6233917;22;50870;-73
2023/04/25 10:00:59;;;;;;;;;0.00;0.00;;;;;;;;6234458;22;49701;-76
2023/04/25 10:03:25;;;;;;;;;0.00;0.00;;;;;;;;6234171;22;50046;-78
2023/04/25 10:05:52;;;;;;;;;0.00;0.00;;;;;;;;6234646;22;49694;-81
2023/04/25 10:08:17;;;;;;;;;0.00;0.00;;;;;;;;6234055;22;49620;-77
2023/04/25 10:10:42;;;;;;;;;0.00;0.00;;;;;;;;6234944;22;49674;-77
2023/04/25 10:13:08;;;;;;;;;2.00;0.00;;;;;;;;6233986;22;49622;-77
2023/04/25 10:15:35;;;;;;;;;0.00;0.00;;;;;;;;6234851;22;49929;-75
2023/04/25 10:18:00;;;;;;;;;0.00;0.00;;;;;;;;6206552;22;51657;-74
2023/04/25 10:20:26;;;;;;;;;0.00;0.00;;;;;;;;6234326;22;49702;-73
2023/04/25 10:22:53;;;;;;;;;0.00;0.00;;;;;;;;6233884;22;49791;-73
2023/04/25 10:25:19;;;;;;;;;0.00;0.00;;;;;;;;6234560;22;49871;-73
2023/04/25 10:27:44;;;;;;;;;0.00;0.00;;;;;;;;6233914;22;49999;-74
2023/04/25 10:30:14;;;;;;;;;0.00;0.00;;;;;;;;6234504;22;49762;-76
2023/04/25 10:32:41;;;;;;;;;0.00;0.00;;;;;;;;6234054;22;49939;-70
2023/04/25 10:35:16;;;;;;;;;0.00;0.00;;;;;;;;6234194;22;50149;-70
2023/04/25 10:37:56;;;;;;;;;0.00;0.00;;;;;;;;6233847;22;50503;-70
2023/04/25 10:40:22;;;;;;;;;0.00;0.00;;;;;;;;6233916;22;50001;-76
2023/04/25 10:42:47;;;;;;;;;0.75;0.00;;;;;;;;6206525;22;49955;-73
2023/04/25 10:45:13;;;;;;;;;0.00;0.00;;;;;;;;6233779;22;49874;-72
2023/04/25 10:47:44;;;;;;;;;0.00;0.00;;;;;;;;6233714;22;50408;-73
2023/04/25 10:50:09;;;;;;;;;0.00;0.00;;;;;;;;6232916;22;49698;-73
2023/04/25 10:52:35;;;;;;;;;0.00;0.00;;;;;;;;6233080;22;50228;-76
2023/04/25 10:55:02;;;;;;;;;0.00;0.00;;;;;;;;6232381;22;49927;-74
2023/04/25 10:57:31;;;;;;;;;0.75;0.75;;;;;;;;6230356;22;51084;-75
2023/04/25 11:00:16;;;;;;;;;0.00;0.00;;;;;;;;6204994;22;49735;-73
2023/04/25 11:02:46;;;;;;;;;0.00;0.00;;;;;;;;6234332;22;49646;-73
2023/04/25 11:05:19;;;;;;;;;0.00;0.00;;;;;;;;6234199;22;49885;-74
2023/04/25 11:07:47;;;;;;;;;0.00;0.00;;;;;;;;6233645;22;50486;-73
2023/04/25 11:10:13;;;;;;;;;3.00;0.00;;;;;;;;6205628;22;49705;-72
2023/04/25 11:12:39;;;;;;;;;0.00;0.00;;;;;;;;6233698;22;49613;-73
2023/04/25 11:15:05;;;;;;;;;0.75;0.75;;;;;;;;6234045;22;49786;-73
2023/04/25 11:17:30;;;;;;;;;0.00;0.00;;;;;;;;6232302;22;51326;-74
2023/04/25 11:19:56;;;;;;;;;0.00;0.00;;;;;;;;6233659;22;49615;-73
2023/04/25 11:22:21;;;;;;;;;0.00;0.00;;;;;;;;6233076;22;49612;-74
2023/04/25 11:24:47;;;;;;;;;0.00;0.00;;;;;;;;6234453;22;49620;-76
2023/04/25 11:27:12;;;;;;;;;0.00;0.00;;;;;;;;6206949;22;51397;-76
2023/04/25 11:29:37;;;;;;;;;0.00;0.00;;;;;;;;6234873;22;49765;-76
2023/04/25 11:32:03;;;;;;;;;0.00;0.00;;;;;;;;6235164;22;49644;-73
2023/04/25 11:34:30;;;;;;;;;0.00;0.00;;;;;;;;6235142;22;49891;-74
2023/04/25 11:36:56;;;;;;;;;0.00;0.00;;;;;;;;6235243;22;49808;-73
2023/04/25 11:39:21;;;;;;;;;0.00;0.00;;;;;;;;6233963;22;49673;-75
2023/04/25 11:41:47;;;;;;;;;0.00;0.00;;;;;;;;6234144;22;49772;-76
2023/04/25 11:44:15;;;;;;;;;0.00;0.00;;;;;;;;6234806;22;49860;-76
2023/04/25 11:46:40;;;;;;;;;0.00;0.00;;;;;;;;6234623;22;52018;-75
2023/04/25 11:49:05;;;;;;;;;0.00;0.00;;;;;;;;6235334;22;49916;-75
2023/04/25 11:51:37;;;;;;;;;0.00;0.00;;;;;;;;6234746;22;49919;-74
2023/04/25 11:54:02;;;;;;;;;0.00;0.00;;;;;;;;6235337;22;49795;-75
2023/04/25 11:56:27;;;;;;;;;0.00;0.00;;;;;;;;6234440;22;50864;-75
2023/04/25 11:58:56;;;;;;;;;0.00;0.00;;;;;;;;6234651;22;50037;-76
2023/04/25 12:01:26;;;;;;;;;0.00;0.00;;;;;;;;6234874;22;49762;-74
2023/04/25 12:03:51;;;;;;;;;1.00;1.00;;;;;;;;6234052;22;49574;-75
2023/04/25 12:06:17;;;;;;;;;0.00;0.00;;;;;;;;6233865;22;50657;-74
2023/04/25 12:08:58;;;;;;;;;0.00;0.00;;;;;;;;6206834;22;49727;-74
2023/04/25 12:11:23;;;;;;;;;0.00;0.00;;;;;;;;6232979;22;49753;-74
2023/04/25 12:13:51;;;;;;;;;0.00;0.00;;;;;;;;6233768;22;49823;-74
2023/04/25 12:16:16;;;;;;;;;0.00;0.00;;;;;;;;6205778;22;52535;-74
2023/04/25 12:18:41;;;;;;;;;0.00;0.00;;;;;;;;6233192;22;49855;-76
2023/04/25 12:21:06;;;;;;;;;0.00;0.00;;;;;;;;6232385;22;49708;-75
2023/04/25 12:23:32;;;;;;;;;0.00;0.00;;;;;;;;6232792;22;49583;-75
2023/04/25 12:25:57;;;;;;;;;0.00;0.00;;;;;;;;6234073;22;50656;-75
2023/04/25 12:28:24;;;;;;;;;2.25;0.00;;;;;;;;6234608;22;50166;-75
2023/04/25 12:30:52;;;;;;;;;0.00;0.00;;;;;;;;6234775;22;49521;-75
2023/04/25 12:33:17;;;;;;;;;0.00;0.00;;;;;;;;6235470;22;49666;-75
2023/04/25 12:35:42;;;;;;;;;0.00;0.00;;;;;;;;6234406;22;49776;-74
2023/04/25 12:38:08;;;;;;;;;0.00;0.00;;;;;;;;6234186;22;49706;-74
2023/04/25 12:40:33;;;;;;;;;0.00;0.00;;;;;;;;6234363;22;49668;-73
2023/04/25 12:42:58;;;;;;;;;1.00;1.00;;;;;;;;6235007;22;49860;-81
2023/04/25 12:45:24;;;;;;;;;0.00;0.00;;;;;;;;6234362;22;51459;-75
2023/04/25 12:47:49;;;;;;;;;0.00;0.00;;;;;;;;6234320;22;49678;-76
2023/04/25 12:50:14;;;;;;;;;0.00;0.00;;;;;;;;6234863;22;49922;-75
2023/04/25 12:52:39;;;;;;;;;0.00;0.00;;;;;;;;6234606;22;49610;-76
2023/04/25 12:55:05;;;;;;;;;0.00;0.00;;;;;;;;6234953;22;50429;-72
2023/04/25 12:57:30;;;;;;;;;0.00;0.00;;;;;;;;6234298;22;50129;-75
2023/04/25 12:59:55;;;;;;;;;0.00;0.00;;;;;;;;6235118;22;49813;-71
2023/04/25 13:02:21;;;;;;;;;1.00;1.00;;;;;;;;6234448;22;49654;-72
2023/04/25 13:04:46;;;;;;;;;0.00;0.00;;;;;;;;6234665;22;51013;-72
2023/04/25 13:07:11;;;;;;;;;0.00;0.00;;;;;;;;6234014;22;49683;-72
2023/04/25 13:09:36;;;;;;;;;0.00;0.00;;;;;;;;6234326;22;49551;-73
2023/04/25 13:12:01;;;;;;;;;0.00;0.00;;;;;;;;6234089;22;49968;-74
2023/04/25 13:14:27;;;;;;;;;0.00;0.00;;;;;;;;6232765;22;51541;-75
2023/04/25 13:16:52;;;;;;;;;0.00;0.00;;;;;;;;6234794;22;49567;-75
2023/04/25 13:19:17;;;;;;;;;0.00;0.00;;;;;;;;6234142;22;49707;-74
2023/04/25 13:21:42;;;;;;;;;0.00;0.00;;;;;;;;6232750;22;49753;-72
2023/04/25 13:24:07;;;;;;;;;0.00;0.00;;;;;;;;6232974;22;51417;-74
2023/04/25 13:26:32;;;;;;;;;0.00;0.00;;;;;;;;6205113;22;49666;-72
2023/04/25 13:28:58;;;;;;;;;0.00;0.00;;;;;;;;6233001;22;49802;-73
2023/04/25 13:31:23;;;;;;;;;0.00;0.00;;;;;;;;6232494;22;49595;-74
2023/04/25 13:33:48;;;;;;;;;0.00;0.00;;;;;;;;6232585;22;51137;-71
2023/04/25 13:36:14;;;;;;;;;0.00;0.00;;;;;;;;6233086;22;50045;-74
2023/04/25 13:38:41;;;;;;;;;0.00;0.00;;;;;;;;6204668;22;49638;-73
2023/04/25 13:41:07;;;;;;;;;0.00;0.00;;;;;;;;6233092;22;49940;-75
2023/04/25 13:43:32;;;;;;;;;0.25;0.25;;;;;;;;6232043;22;50569;-74
2023/04/25 13:45:57;;;;;;;;;0.00;0.00;;;;;;;;6232581;22;49706;-74
2023/04/25 13:48:23;;;;;;;;;0.00;0.00;;;;;;;;6232166;22;49721;-74
2023/04/25 13:50:49;;;;;;;;;0.00;0.00;;;;;;;;6232667;22;49631;-77
2023/04/25 13:53:14;;;;;;;;;0.00;0.00;;;;;;;;6232742;22;49637;-73
2023/04/25 13:55:40;;;;;;;;;0.00;0.00;;;;;;;;6232454;22;49849;-75
2023/04/25 13:58:07;;;;;;;;;0.00;0.00;;;;;;;;6232793;22;49928;-75
2023/04/25 14:00:33;;;;;;;;;0.00;0.00;;;;;;;;6232922;22;49595;-74
2023/04/25 14:02:58;;;;;;;;;0.00;0.00;;;;;;;;6232708;22;49654;-74
2023/04/25 14:05:23;;;;;;;;;0.00;0.00;;;;;;;;6232522;22;49665;-75
2023/04/25 14:07:49;;;;;;;;;0.00;0.00;;;;;;;;6232592;22;49615;-82
2023/04/25 14:10:14;;;;;;;;;0.00;0.00;;;;;;;;6205915;22;50023;-73
2023/04/25 14:12:39;;;;;;;;;0.00;0.00;;;;;;;;6232064;22;50549;-74
2023/04/25 14:15:05;;;;;;;;;0.00;0.00;;;;;;;;6232346;22;49900;-74
2023/04/25 14:17:30;;;;;;;;;0.00;0.00;;;;;;;;6232805;22;49786;-75
2023/04/25 14:19:55;;;;;;;;;0.00;0.00;;;;;;;;6232684;22;49852;-73
2023/04/25 14:22:20;;;;;;;;;0.00;0.00;;;;;;;;6231747;22;50877;-73
2023/04/25 14:24:46;;;;;;;;;0.00;0.00;;;;;;;;6204791;22;49582;-75
2023/04/25 14:27:11;;;;;;;;;0.00;0.00;;;;;;;;6232828;22;49832;-74
2023/04/25 14:29:36;;;;;;;;;0.00;0.00;;;;;;;;6232132;22;49993;-74
2023/04/25 14:32:02;;;;;;;;;1.00;1.00;;;;;;;;6231790;22;51263;-72
2023/04/25 14:34:27;;;;;;;;;0.00;0.00;;;;;;;;6232289;22;49667;-73
2023/04/25 14:36:52;;;;;;;;;0.00;0.00;;;;;;;;6232315;22;50120;-73
2023/04/25 14:39:18;;;;;;;;;0.00;0.00;;;;;;;;6232492;22;50442;-73
2023/04/25 14:41:44;;;;;;;;;0.00;0.00;;;;;;;;6232151;22;51165;-73
2023/04/25 14:44:09;;;;;;;;;0.00;0.00;;;;;;;;6231362;22;50084;-74
2023/04/25 14:46:34;;;;;;;;;0.00;0.00;;;;;;;;6231318;22;49766;-73
2023/04/25 14:48:59;;;;;;;;;0.00;0.00;;;;;;;;6231655;22;49749;-73
2023/04/25 14:51:26;;;;;;;;;0.00;0.00;;;;;;;;6231066;22;50325;-74
2023/04/25 14:53:51;;;;;;;;;0.00;0.00;;;;;;;;6231116;22;49730;-72
2023/04/25 14:56:16;;;;;;;;;0.00;0.00;;;;;;;;6231772;22;50019;-73
2023/04/25 14:58:41;;;;;;;;;0.00;0.00;;;;;;;;6232103;22;50290;-73
2023/04/25 15:01:08;;;;;;;;;0.00;0.00;;;;;;;;6232774;22;50357;-73
2023/04/25 15:03:33;;;;;;;;;0.00;0.00;;;;;;;;6232994;22;49941;-75
2023/04/25 15:05:58;;;;;;;;;3.00;3.00;;;;;;;;6234123;22;49981;-69
2023/04/25 15:08:23;;;;;;;;;0.00;0.00;;;;;;;;6234003;22;49906;-69
2023/04/25 15:10:49;;;;;;;;;0.00;0.00;;;;;;;;6205992;22;52761;-70
2023/04/25 15:13:15;;;;;;;;;3.00;3.00;;;;;;;;6233599;22;49655;-70
2023/04/25 15:15:40;;;;;;;;;0.00;0.00;;;;;;;;6233298;22;49866;-69
2023/04/25 15:18:05;;;;;;;;;0.00;0.00;;;;;;;;6233813;22;49904;-69
2023/04/25 15:20:31;;;;;;;;;0.00;0.00;;;;;;;;6233651;22;50106;-69
2023/04/25 15:22:56;;;;;;;;;0.00;0.00;;;;;;;;6233240;22;49580;-69
2023/04/25 15:25:22;;;;;;;;;0.00;0.00;;;;;;;;6233334;22;49802;-69
2023/04/25 15:27:48;;;;;;;;;0.25;0.25;;;;;;;;6233348;22;49619;-70
2023/04/25 15:30:17;;;;;;;;;0.00;0.00;;;;;;;;6233228;22;50108;-69
2023/04/25 15:32:42;;;;;;;;;7.00;7.00;;;;;;;;6232777;22;49702;-70
2023/04/25 15:35:08;;;;;;;;;0.00;0.00;;;;;;;;6234307;22;50117;-70
2023/04/25 15:37:34;;;;;;;;;0.00;0.00;;;;;;;;6233287;22;50055;-70
2023/04/25 15:40:08;;;;;;;;;0.00;0.00;;;;;;;;6233141;22;50268;-70
2023/04/25 15:42:33;;;;;;;;;0.25;0.00;;;;;;;;6233320;22;49638;-71
2023/04/25 15:44:58;;;;;;;;;0.00;0.00;;;;;;;;6233782;22;49606;-70
2023/04/25 15:47:24;;;;;;;;;0.00;0.00;;;;;;;;6233869;22;49905;-70
2023/04/25 15:49:49;;;;;;;;;0.00;0.00;;;;;;;;6232835;22;51121;-70
2023/04/25 15:52:14;;;;;;;;;0.00;0.00;;;;;;;;6233458;22;49627;-72
2023/04/25 15:54:39;;;;;;;;;0.00;0.00;;;;;;;;6233666;22;50235;-70
2023/04/25 15:57:05;;;;;;;;;0.00;0.00;;;;;;;;6233847;22;50218;-70
2023/04/25 15:59:30;;;;;;;;;0.00;0.00;;;;;;;;6233193;22;50390;-69
2023/04/25 16:01:56;;;;;;;;;0.00;0.00;;;;;;;;6233429;22;49917;-70
2023/04/25 16:04:21;;;;;;;;;0.00;0.00;;;;;;;;6233553;22;49675;-70
2023/04/25 16:06:46;;;;;;;;;0.00;0.00;;;;;;;;6233886;22;49980;-70
2023/04/25 16:09:11;;;;;;;;;0.00;0.00;;;;;;;;6232882;22;50366;-71
2023/04/25 16:11:37;;;;;;;;;0.00;0.00;;;;;;;;6234197;22;50136;-69
2023/04/25 16:14:02;;;;;;;;;0.00;0.00;;;;;;;;6234883;22;49633;-71
2023/04/25 16:16:27;;;;;;;;;0.00;0.00;;;;;;;;6235207;22;50052;-72
2023/04/25 16:18:52;;;;;;;;;0.00;0.00;;;;;;;;6234293;22;50904;-72
2023/04/25 16:21:17;;;;;;;;;0.00;0.00;;;;;;;;6234191;22;49761;-79
2023/04/25 16:23:42;;;;;;;;;0.00;0.00;;;;;;;;6235024;22;49856;-69
2023/04/25 16:26:08;;;;;;;;;0.00;0.00;;;;;;;;6235440;22;49899;-72
2023/04/25 16:28:33;;;;;;;;;0.00;0.00;;;;;;;;6234074;22;49619;-71
2023/04/25 16:30:59;;;;;;;;;0.00;0.00;;;;;;;;6235015;22;49738;-71
2023/04/25 16:33:24;;;;;;;;;0.00;0.00;;;;;;;;6234866;22;49974;-71
2023/04/25 16:35:51;;;;;;;;;0.00;0.00;;;;;;;;6234482;22;49606;-72
2023/04/25 16:38:16;;;;;;;;;0.00;0.00;;;;;;;;6234936;22;50136;-71
2023/04/25 16:40:41;;;;;;;;;0.00;0.00;;;;;;;;6234724;22;50133;-71
2023/04/25 16:43:06;;;;;;;;;0.00;0.00;;;;;;;;6234970;22;49986;-71
2023/04/25 16:45:32;;;;;;;;;0.00;0.00;;;;;;;;6234837;22;49625;-68
2023/04/25 16:47:57;;;;;;;;;0.00;0.00;;;;;;;;6234073;22;50581;-69
2023/04/25 16:50:22;;;;;;;;;0.00;0.00;;;;;;;;6233922;22;50032;-69
2023/04/25 16:52:47;;;;;;;;;0.00;0.00;;;;;;;;6234323;22;49757;-69
2023/04/25 16:55:13;;;;;;;;;0.00;0.00;;;;;;;;6235148;22;49759;-70
2023/04/25 16:57:38;;;;;;;;;0.00;0.00;;;;;;;;6233931;22;50381;-78
2023/04/25 17:00:04;;;;;;;;;0.00;0.00;;;;;;;;6234733;22;49743;-71
2023/04/25 17:02:29;;;;;;;;;0.00;0.00;;;;;;;;6234657;22;49544;-75
2023/04/25 17:04:54;;;;;;;;;0.00;0.00;;;;;;;;6234764;22;49551;-74
2023/04/25 17:07:23;;;;;;;;;0.00;0.00;;;;;;;;6234467;22;51736;-76
2023/04/25 17:09:48;;;;;;;;;0.00;0.00;;;;;;;;6234549;22;49642;-73
2023/04/25 17:12:14;;;;;;;;;0.00;0.00;;;;;;;;6207126;22;49695;-72
2023/04/25 17:14:39;;;;;;;;;0.00;0.00;;;;;;;;6234641;22;49848;-74
2023/04/25 17:17:04;;;;;;;;;0.00;0.00;;;;;;;;6234535;22;51400;-72
2023/04/25 17:19:30;;;;;;;;;0.00;0.00;;;;;;;;6234397;22;49813;-74
2023/04/25 17:21:56;;;;;;;;;0.00;0.00;;;;;;;;6233913;22;49817;-74
2023/04/25 17:24:21;;;;;;;;;0.00;0.00;;;;;;;;6207366;22;50016;-74
2023/04/25 17:26:46;;;;;;;;;0.00;0.00;;;;;;;;6234200;22;51122;-73
2023/04/25 17:29:11;;;;;;;;;0.00;0.00;;;;;;;;6234263;22;49770;-73
2023/04/25 17:31:36;;;;;;;;;0.00;0.00;;;;;;;;6234548;22;49627;-72
2023/04/25 17:34:03;;;;;;;;;0.00;0.00;;;;;;;;6234673;22;49935;-71
2023/04/25 17:36:28;;;;;;;;;0.00;0.00;;;;;;;;6233975;22;51175;-72
2023/04/25 17:38:53;;;;;;;;;0.00;0.00;;;;;;;;6234241;22;49775;-68
2023/04/25 17:41:19;;;;;;;;;0.00;0.00;;;;;;;;6234311;22;49939;-72
2023/04/25 17:43:44;;;;;;;;;0.00;0.00;;;;;;;;6234604;22;49856;-72
2023/04/25 17:46:10;;;;;;;;;1.00;1.00;;;;;;;;6233998;22;51529;-72
2023/04/25 17:48:35;;;;;;;;;0.00;0.00;;;;;;;;6233868;22;49589;-73
2023/04/25 17:51:00;;;;;;;;;0.00;0.00;;;;;;;;6234442;22;49634;-72
2023/04/25 17:53:25;;;;;;;;;0.00;0.00;;;;;;;;6233279;22;49597;-73
2023/04/25 17:55:51;;;;;;;;;0.00;0.00;;;;;;;;6233526;22;50699;-72
2023/04/25 17:58:16;;;;;;;;;0.25;0.25;;;;;;;;6234430;22;49655;-72
2023/04/25 18:00:41;;;;;;;;;0.00;0.00;;;;;;;;6234768;22;50067;-70
2023/04/25 18:03:07;;;;;;;;;0.00;0.00;;;;;;;;6234899;22;49874;-69
2023/04/25 18:05:32;;;;;;;;;0.00;0.00;;;;;;;;6233958;22;49885;-70
2023/04/25 18:07:57;;;;;;;;;0.00;0.00;;;;;;;;6234652;22;49818;-71
2023/04/25 18:10:22;;;;;;;;;0.00;0.00;;;;;;;;6234093;22;50038;-70
2023/04/25 18:12:49;;;;;;;;;0.00;0.00;;;;;;;;6234845;22;50092;-72
2023/04/25 18:15:14;;;;;;;;;0.00;0.00;;;;;;;;6234151;22;50508;-70
2023/04/25 18:17:39;;;;;;;;;0.25;0.25;;;;;;;;6234353;22;49675;-71
2023/04/25 18:20:14;;;;;;;;;0.00;0.00;;;;;;;;6234117;22;49919;-77
2023/04/25 18:22:40;;;;;;;;;0.00;0.00;;;;;;;;6227191;22;50012;-74
2023/04/25 18:25:07;;;;;;;;;0.00;0.00;;;;;;;;6234102;22;49724;-75
2023/04/25 18:27:32;;;;;;;;;0.00;0.00;;;;;;;;6234286;22;49717;-76
2023/04/25 18:29:57;;;;;;;;;0.00;0.00;;;;;;;;6234735;22;49666;-74
2023/04/25 18:32:22;;;;;;;;;0.00;0.00;;;;;;;;6234866;22;50384;-71
2023/04/25 18:34:49;;;;;;;;;0.00;0.00;;;;;;;;6234809;22;50300;-71
2023/04/25 18:37:15;;;;;;;;;0.00;0.00;;;;;;;;6235564;22;49636;-72
2023/04/25 18:39:40;;;;;;;;;0.00;0.00;;;;;;;;6235018;22;49909;-70
2023/04/25 18:42:06;;;;;;;;;0.00;0.00;;;;;;;;6235310;22;49853;-70
2023/04/25 18:44:35;;;;;;;;;0.00;0.00;;;;;;;;6234465;22;51320;-71
2023/04/25 18:47:00;;;;;;;;;0.00;0.00;;;;;;;;6235218;22;49744;-79
2023/04/25 18:49:26;;;;;;;;;0.00;0.00;;;;;;;;6233621;22;49732;-73
2023/04/25 18:51:52;;;;;;;;;0.00;0.00;;;;;;;;6234933;22;49871;-74
2023/04/25 18:54:18;;;;;;;;;0.00;0.00;;;;;;;;6234897;22;50019;-75
2023/04/25 18:56:43;;;;;;;;;0.00;0.00;;;;;;;;6234606;22;49570;-74
2023/04/25 18:59:08;;;;;;;;;0.00;0.00;;;;;;;;6235125;22;49910;-73
2023/04/25 19:01:33;;;;;;;;;0.00;0.00;;;;;;;;6234912;22;49986;-74
2023/04/25 19:03:58;;;;;;;;;0.00;0.00;;;;;;;;6234994;22;50455;-74
2023/04/25 19:06:26;;;;;;;;;0.00;0.00;;;;;;;;6234880;22;49735;-75
2023/04/25 19:08:52;;;;;;;;;0.00;0.00;;;;;;;;6234665;22;49931;-76
2023/04/25 19:11:18;;;;;;;;;0.00;0.00;;;;;;;;6235722;22;49928;-76
2023/04/25 19:13:43;;;;;;;;;0.00;0.00;;;;;;;;6235388;22;50314;-77
2023/04/25 19:16:09;;;;;;;;;0.00;0.00;;;;;;;;6234386;22;49956;-79
2023/04/25 19:18:34;;;;;;;;;0.00;0.00;;;;;;;;6233351;22;49629;-75
2023/04/25 19:21:00;;;;;;;;;0.00;0.00;;;;;;;;6235382;22;50221;-73
2023/04/25 19:23:25;;;;;;;;;0.00;0.00;;;;;;;;6234280;22;50574;-73
2023/04/25 19:25:50;;;;;;;;;0.00;0.00;;;;;;;;6234059;22;49694;-75
2023/04/25 19:28:15;;;;;;;;;0.00;0.00;;;;;;;;6235129;22;49840;-76
2023/04/25 19:30:41;;;;;;;;;0.00;0.00;;;;;;;;6234971;22;49796;-76
2023/04/25 19:33:06;;;;;;;;;0.00;0.00;;;;;;;;6234719;22;50007;-75
2023/04/25 19:35:32;;;;;;;;;0.00;0.00;;;;;;;;6234662;22;49595;-74
2023/04/25 19:37:57;;;;;;;;;0.00;0.00;;;;;;;;6235451;22;49987;-74
2023/04/25 19:40:22;;;;;;;;;0.00;0.00;;;;;;;;6208134;22;49612;-75
2023/04/25 19:42:48;;;;;;;;;0.00;0.00;;;;;;;;6234809;22;50880;-74
2023/04/25 19:45:13;;;;;;;;;0.00;0.00;;;;;;;;6233464;22;50298;-76
2023/04/25 19:47:38;;;;;;;;;0.00;0.00;;;;;;;;6233359;22;49853;-77
2023/04/25 19:50:07;;;;;;;;;0.00;0.00;;;;;;;;6234333;22;50355;-77
2023/04/25 19:52:33;;;;;;;;;0.00;0.00;;;;;;;;6234162;22;50432;-78
2023/04/25 19:55:01;;;;;;;;;0.00;0.00;;;;;;;;6234467;22;49771;-75